sensor_id;sensor_type;location;lat;lon;timestamp;pressure;altitude;pressure_sealevel;temperature;humidity
13407;BME280;6774;48.208;10.766;2023-02-18T00:01:48;96465.91;;;10.16;86.34
13407;BME280;6774;48.208;10.766;2023-02-18T00:04:16;96462.63;;;10.30;86.11
13407;BME280;6774;48.208;10.766;2023-02-18T00:06:45;96464.56;;;10.12;86.65
13407;BME280;6774;48.208;10.766;2023-02-18T00:09:13;96465.25;;;10.22;86.12
13407;BME280;6774;48.208;10.766;2023-02-18T00:11:41;96461.66;;;10.39;85.42
13407;BME280;6774;48.208;10.766;2023-02-18T00:14:11;96460.81;;;10.31;85.52
13407;BME280;6774;48.208;10.766;2023-02-18T00:16:40;96449.78;;;10.27;86.13
13407;BME280;6774;48.208;10.766;2023-02-18T00:19:11;96454.72;;;10.22;85.74
13407;BME280;6774;48.208;10.766;2023-02-18T00:21:39;96447.97;;;10.28;86.26
13407;BME280;6774;48.208;10.766;2023-02-18T00:24:11;96445.66;;;10.33;85.92
13407;BME280;6774;48.208;10.766;2023-02-18T00:26:42;96450.06;;;10.16;86.51
13407;BME280;6774;48.208;10.766;2023-02-18T00:29:10;96440.00;;;10.19;86.61
13407;BME280;6774;48.208;10.766;2023-02-18T00:31:40;96439.72;;;10.22;86.46
13407;BME280;6774;48.208;10.766;2023-02-18T00:34:09;96450.72;;;10.10;87.09
13407;BME280;6774;48.208;10.766;2023-02-18T00:36:37;96461.25;;;10.10;87.68
13407;BME280;6774;48.208;10.766;2023-02-18T00:39:07;96446.91;;;10.12;86.75
13407;BME280;6774;48.208;10.766;2023-02-18T00:41:37;96456.66;;;10.20;87.29
13407;BME280;6774;48.208;10.766;2023-02-18T00:44:05;96460.81;;;10.22;86.72
13407;BME280;6774;48.208;10.766;2023-02-18T00:46:33;96449.63;;;10.29;86.68
13407;BME280;6774;48.208;10.766;2023-02-18T00:49:02;96450.38;;;10.13;87.18
13407;BME280;6774;48.208;10.766;2023-02-18T00:51:30;96445.53;;;10.42;86.43
13407;BME280;6774;48.208;10.766;2023-02-18T00:53:58;96446.16;;;10.36;86.46
13407;BME280;6774;48.208;10.766;2023-02-18T00:56:26;96447.16;;;10.27;86.87
13407;BME280;6774;48.208;10.766;2023-02-18T00:58:55;96445.19;;;10.45;85.80
13407;BME280;6774;48.208;10.766;2023-02-18T01:01:23;96449.81;;;10.35;86.43
13407;BME280;6774;48.208;10.766;2023-02-18T01:03:51;96439.94;;;10.62;85.59
13407;BME280;6774;48.208;10.766;2023-02-18T01:06:19;96442.88;;;10.67;85.48
13407;BME280;6774;48.208;10.766;2023-02-18T01:08:48;96446.34;;;10.75;85.06
13407;BME280;6774;48.208;10.766;2023-02-18T01:11:16;96438.13;;;10.70;85.18
13407;BME280;6774;48.208;10.766;2023-02-18T01:13:44;96429.69;;;10.67;84.89
13407;BME280;6774;48.208;10.766;2023-02-18T01:16:13;96434.31;;;10.81;84.43
13407;BME280;6774;48.208;10.766;2023-02-18T01:18:44;96428.38;;;10.71;84.61
13407;BME280;6774;48.208;10.766;2023-02-18T01:21:13;96420.47;;;10.79;84.07
13407;BME280;6774;48.208;10.766;2023-02-18T01:23:41;96423.88;;;10.88;83.24
13407;BME280;6774;48.208;10.766;2023-02-18T01:26:10;96421.59;;;10.76;83.39
13407;BME280;6774;48.208;10.766;2023-02-18T01:28:39;96412.50;;;10.87;82.91
13407;BME280;6774;48.208;10.766;2023-02-18T01:31:09;96408.91;;;10.88;82.69
13407;BME280;6774;48.208;10.766;2023-02-18T01:33:42;96412.03;;;10.75;83.25
13407;BME280;6774;48.208;10.766;2023-02-18T01:36:10;96412.84;;;10.76;83.14
13407;BME280;6774;48.208;10.766;2023-02-18T01:38:38;96410.22;;;10.60;83.85
13407;BME280;6774;48.208;10.766;2023-02-18T01:41:06;96419.47;;;10.56;84.06
13407;BME280;6774;48.208;10.766;2023-02-18T01:43:36;96417.66;;;10.48;84.29
13407;BME280;6774;48.208;10.766;2023-02-18T01:46:11;96413.69;;;10.28;84.80
13407;BME280;6774;48.208;10.766;2023-02-18T01:48:43;96419.16;;;10.42;84.82
13407;BME280;6774;48.208;10.766;2023-02-18T01:51:15;96408.56;;;10.26;85.32
13407;BME280;6774;48.208;10.766;2023-02-18T01:53:48;96407.59;;;10.27;85.00
13407;BME280;6774;48.208;10.766;2023-02-18T01:56:22;96399.50;;;10.29;85.54
13407;BME280;6774;48.208;10.766;2023-02-18T01:58:53;96399.66;;;10.27;85.36
13407;BME280;6774;48.208;10.766;2023-02-18T02:01:22;96401.63;;;10.33;85.34
13407;BME280;6774;48.208;10.766;2023-02-18T02:03:52;96399.34;;;10.46;84.59
13407;BME280;6774;48.208;10.766;2023-02-18T02:06:21;96403.13;;;10.36;85.18
13407;BME280;6774;48.208;10.766;2023-02-18T02:08:52;96403.09;;;10.19;85.50
13407;BME280;6774;48.208;10.766;2023-02-18T02:11:31;96402.31;;;10.35;85.14
13407;BME280;6774;48.208;10.766;2023-02-18T02:14:12;96392.06;;;10.32;86.26
13407;BME280;6774;48.208;10.766;2023-02-18T02:16:49;96404.97;;;10.43;86.05
13407;BME280;6774;48.208;10.766;2023-02-18T02:19:40;96405.94;;;10.50;86.05
13407;BME280;6774;48.208;10.766;2023-02-18T02:22:40;96404.94;;;10.60;85.79
13407;BME280;6774;48.208;10.766;2023-02-18T02:25:22;96404.63;;;10.63;86.19
13407;BME280;6774;48.208;10.766;2023-02-18T02:28:27;96401.63;;;10.74;85.22
13407;BME280;6774;48.208;10.766;2023-02-18T02:31:15;96398.34;;;10.72;85.69
13407;BME280;6774;48.208;10.766;2023-02-18T02:37:03;96401.28;;;10.93;84.79
13407;BME280;6774;48.208;10.766;2023-02-18T02:39:40;96393.84;;;10.97;84.57
13407;BME280;6774;48.208;10.766;2023-02-18T02:42:17;96387.78;;;10.88;84.69
13407;BME280;6774;48.208;10.766;2023-02-18T02:44:54;96388.06;;;11.01;84.29
13407;BME280;6774;48.208;10.766;2023-02-18T02:47:27;96387.41;;;11.07;83.70
13407;BME280;6774;48.208;10.766;2023-02-18T02:50:02;96378.50;;;11.00;84.24
13407;BME280;6774;48.208;10.766;2023-02-18T02:52:35;96383.97;;;10.82;84.72
13407;BME280;6774;48.208;10.766;2023-02-18T02:55:08;96383.50;;;10.71;85.17
13407;BME280;6774;48.208;10.766;2023-02-18T02:57:48;96381.69;;;10.71;85.61
13407;BME280;6774;48.208;10.766;2023-02-18T03:00:31;96394.06;;;10.71;85.99
13407;BME280;6774;48.208;10.766;2023-02-18T03:03:19;96391.91;;;10.74;86.10
13407;BME280;6774;48.208;10.766;2023-02-18T03:06:16;96382.34;;;10.73;86.54
13407;BME280;6774;48.208;10.766;2023-02-18T03:08:59;96382.81;;;10.85;85.45
13407;BME280;6774;48.208;10.766;2023-02-18T03:11:36;96373.13;;;10.61;86.18
13407;BME280;6774;48.208;10.766;2023-02-18T03:14:13;96377.88;;;10.66;85.93
13407;BME280;6774;48.208;10.766;2023-02-18T03:16:57;96371.59;;;10.75;86.12
13407;BME280;6774;48.208;10.766;2023-02-18T03:19:29;96372.09;;;10.78;85.49
13407;BME280;6774;48.208;10.766;2023-02-18T03:22:02;96372.13;;;10.54;86.53
13407;BME280;6774;48.208;10.766;2023-02-18T03:24:37;96377.41;;;10.62;85.81
13407;BME280;6774;48.208;10.766;2023-02-18T03:27:09;96373.94;;;10.70;86.30
13407;BME280;6774;48.208;10.766;2023-02-18T03:29:40;96369.97;;;10.66;86.08
13407;BME280;6774;48.208;10.766;2023-02-18T03:32:10;96366.69;;;10.56;86.93
13407;BME280;6774;48.208;10.766;2023-02-18T03:34:43;96370.31;;;10.30;87.00
13407;BME280;6774;48.208;10.766;2023-02-18T03:37:14;96373.91;;;10.21;87.48
13407;BME280;6774;48.208;10.766;2023-02-18T03:39:47;96374.28;;;10.34;87.21
13407;BME280;6774;48.208;10.766;2023-02-18T03:42:16;96372.59;;;10.33;86.86
13407;BME280;6774;48.208;10.766;2023-02-18T03:44:44;96389.13;;;10.27;87.33
13407;BME280;6774;48.208;10.766;2023-02-18T03:47:13;96395.41;;;10.34;86.94
13407;BME280;6774;48.208;10.766;2023-02-18T03:49:41;96376.72;;;10.19;87.10
13407;BME280;6774;48.208;10.766;2023-02-18T03:52:09;96376.25;;;10.40;86.51
13407;BME280;6774;48.208;10.766;2023-02-18T03:54:37;96366.50;;;10.49;86.33
13407;BME280;6774;48.208;10.766;2023-02-18T03:57:08;96368.97;;;10.50;86.05
13407;BME280;6774;48.208;10.766;2023-02-18T03:59:36;96366.34;;;10.50;85.75
13407;BME280;6774;48.208;10.766;2023-02-18T04:02:04;96367.16;;;10.51;86.04
13407;BME280;6774;48.208;10.766;2023-02-18T04:04:32;96358.78;;;10.47;85.96
13407;BME280;6774;48.208;10.766;2023-02-18T04:07:00;96362.06;;;10.33;86.08
13407;BME280;6774;48.208;10.766;2023-02-18T04:09:28;96359.09;;;10.52;85.65
13407;BME280;6774;48.208;10.766;2023-02-18T04:11:56;96375.25;;;10.41;85.18
13407;BME280;6774;48.208;10.766;2023-02-18T04:14:25;96362.41;;;10.46;85.29
13407;BME280;6774;48.208;10.766;2023-02-18T04:16:54;96371.47;;;10.36;85.60
13407;BME280;6774;48.208;10.766;2023-02-18T04:19:21;96365.38;;;10.27;85.99
13407;BME280;6774;48.208;10.766;2023-02-18T04:21:49;96366.69;;;10.23;86.23
13407;BME280;6774;48.208;10.766;2023-02-18T04:24:18;96378.88;;;10.40;85.68
13407;BME280;6774;48.208;10.766;2023-02-18T04:26:45;96359.13;;;10.44;85.01
13407;BME280;6774;48.208;10.766;2023-02-18T04:29:13;96368.63;;;10.13;86.16
13407;BME280;6774;48.208;10.766;2023-02-18T04:31:42;96381.47;;;10.08;85.89
13407;BME280;6774;48.208;10.766;2023-02-18T04:34:10;96367.31;;;10.17;86.45
13407;BME280;6774;48.208;10.766;2023-02-18T04:36:38;96370.97;;;10.32;85.42
13407;BME280;6774;48.208;10.766;2023-02-18T04:39:06;96363.22;;;10.39;85.38
13407;BME280;6774;48.208;10.766;2023-02-18T04:41:34;96370.97;;;10.24;85.22
13407;BME280;6774;48.208;10.766;2023-02-18T04:44:20;96367.97;;;10.11;85.78
13407;BME280;6774;48.208;10.766;2023-02-18T04:46:49;96384.44;;;10.13;86.03
13407;BME280;6774;48.208;10.766;2023-02-18T04:49:17;96387.75;;;10.07;86.77
13407;BME280;6774;48.208;10.766;2023-02-18T04:51:45;96383.78;;;10.11;86.79
13407;BME280;6774;48.208;10.766;2023-02-18T04:54:13;96379.50;;;10.18;85.90
13407;BME280;6774;48.208;10.766;2023-02-18T04:56:41;96375.88;;;10.11;86.21
13407;BME280;6774;48.208;10.766;2023-02-18T04:59:09;96369.59;;;10.12;86.43
13407;BME280;6774;48.208;10.766;2023-02-18T05:01:37;96377.50;;;9.95;86.29
13407;BME280;6774;48.208;10.766;2023-02-18T05:04:07;96377.84;;;10.01;86.52
13407;BME280;6774;48.208;10.766;2023-02-18T05:06:35;96385.13;;;10.07;86.71
13407;BME280;6774;48.208;10.766;2023-02-18T05:09:05;96374.06;;;10.11;86.53
13407;BME280;6774;48.208;10.766;2023-02-18T05:11:33;96369.94;;;10.09;87.08
13407;BME280;6774;48.208;10.766;2023-02-18T05:14:01;96366.66;;;10.07;87.28
13407;BME280;6774;48.208;10.766;2023-02-18T05:16:29;96361.53;;;10.21;86.44
13407;BME280;6774;48.208;10.766;2023-02-18T05:18:57;96363.03;;;10.08;85.89
13407;BME280;6774;48.208;10.766;2023-02-18T05:21:26;96363.03;;;10.08;85.83
13407;BME280;6774;48.208;10.766;2023-02-18T05:23:54;96363.03;;;10.24;85.50
13407;BME280;6774;48.208;10.766;2023-02-18T05:26:22;96359.03;;;9.95;85.95
13407;BME280;6774;48.208;10.766;2023-02-18T05:28:50;96368.13;;;10.09;86.55
13407;BME280;6774;48.208;10.766;2023-02-18T05:31:17;96362.19;;;10.07;86.24
13407;BME280;6774;48.208;10.766;2023-02-18T05:33:46;96362.69;;;10.11;85.61
13407;BME280;6774;48.208;10.766;2023-02-18T05:36:13;96357.41;;;10.11;85.44
13407;BME280;6774;48.208;10.766;2023-02-18T05:38:43;96361.53;;;9.97;86.08
13407;BME280;6774;48.208;10.766;2023-02-18T05:41:10;96363.16;;;10.14;86.08
13407;BME280;6774;48.208;10.766;2023-02-18T05:43:38;96365.94;;;9.96;86.63
13407;BME280;6774;48.208;10.766;2023-02-18T05:46:21;96359.69;;;10.06;85.83
13407;BME280;6774;48.208;10.766;2023-02-18T05:48:48;96360.03;;;10.03;86.34
13407;BME280;6774;48.208;10.766;2023-02-18T05:51:16;96360.38;;;10.00;86.42
13407;BME280;6774;48.208;10.766;2023-02-18T05:53:45;96362.03;;;10.01;85.99
13407;BME280;6774;48.208;10.766;2023-02-18T05:56:13;96371.41;;;10.03;85.71
13407;BME280;6774;48.208;10.766;2023-02-18T05:58:41;96373.22;;;9.94;85.51
13407;BME280;6774;48.208;10.766;2023-02-18T06:01:09;96381.41;;;9.75;86.21
13407;BME280;6774;48.208;10.766;2023-02-18T06:03:37;96383.84;;;9.68;87.54
13407;BME280;6774;48.208;10.766;2023-02-18T06:06:05;96385.41;;;9.95;86.37
13407;BME280;6774;48.208;10.766;2023-02-18T06:08:34;96378.81;;;9.91;86.46
13407;BME280;6774;48.208;10.766;2023-02-18T06:11:03;96385.41;;;9.95;85.93
13407;BME280;6774;48.208;10.766;2023-02-18T06:13:31;96391.34;;;9.89;85.75
13407;BME280;6774;48.208;10.766;2023-02-18T06:15:59;96379.44;;;9.85;86.66
13407;BME280;6774;48.208;10.766;2023-02-18T06:18:27;96382.28;;;10.00;86.04
13407;BME280;6774;48.208;10.766;2023-02-18T06:20:55;96380.31;;;10.02;85.49
13407;BME280;6774;48.208;10.766;2023-02-18T06:23:23;96379.66;;;10.00;85.76
13407;BME280;6774;48.208;10.766;2023-02-18T06:25:51;96374.22;;;10.10;85.34
13407;BME280;6774;48.208;10.766;2023-02-18T06:28:20;96366.50;;;10.16;85.11
13407;BME280;6774;48.208;10.766;2023-02-18T06:30:48;96369.44;;;10.13;84.78
13407;BME280;6774;48.208;10.766;2023-02-18T06:33:16;96371.94;;;10.23;84.68
13407;BME280;6774;48.208;10.766;2023-02-18T06:35:52;96374.44;;;10.24;84.58
13407;BME280;6774;48.208;10.766;2023-02-18T06:38:20;96366.19;;;10.28;84.45
13407;BME280;6774;48.208;10.766;2023-02-18T06:40:48;96365.66;;;10.08;84.91
13407;BME280;6774;48.208;10.766;2023-02-18T06:43:17;96370.97;;;10.24;84.31
13407;BME280;6774;48.208;10.766;2023-02-18T06:45:46;96377.03;;;10.16;84.64
13407;BME280;6774;48.208;10.766;2023-02-18T06:48:14;96379.22;;;10.37;83.83
13407;BME280;6774;48.208;10.766;2023-02-18T06:50:42;96367.03;;;10.36;83.90
13407;BME280;6774;48.208;10.766;2023-02-18T06:53:10;96363.69;;;10.18;84.37
13407;BME280;6774;48.208;10.766;2023-02-18T06:55:38;96365.69;;;10.40;83.94
13407;BME280;6774;48.208;10.766;2023-02-18T06:58:08;96362.09;;;10.25;83.75
13407;BME280;6774;48.208;10.766;2023-02-18T07:00:36;96357.13;;;10.30;84.43
13407;BME280;6774;48.208;10.766;2023-02-18T07:03:06;96336.66;;;10.57;83.12
13407;BME280;6774;48.208;10.766;2023-02-18T07:05:34;96347.22;;;10.32;83.47
13407;BME280;6774;48.208;10.766;2023-02-18T07:08:01;96335.69;;;10.33;83.98
13407;BME280;6774;48.208;10.766;2023-02-18T07:10:29;96349.38;;;10.45;83.32
13407;BME280;6774;48.208;10.766;2023-02-18T07:12:57;96351.50;;;10.49;83.01
13407;BME280;6774;48.208;10.766;2023-02-18T07:15:25;96344.94;;;10.37;83.82
13407;BME280;6774;48.208;10.766;2023-02-18T07:17:53;96358.47;;;10.34;83.64
13407;BME280;6774;48.208;10.766;2023-02-18T07:20:23;96351.84;;;10.63;82.82
13407;BME280;6774;48.208;10.766;2023-02-18T07:22:52;96347.19;;;10.81;82.19
13407;BME280;6774;48.208;10.766;2023-02-18T07:25:20;96344.03;;;10.77;81.94
13407;BME280;6774;48.208;10.766;2023-02-18T07:27:49;96354.28;;;10.80;81.63
13407;BME280;6774;48.208;10.766;2023-02-18T07:30:18;96351.47;;;10.74;82.11
13407;BME280;6774;48.208;10.766;2023-02-18T07:32:46;96356.75;;;10.82;81.69
13407;BME280;6774;48.208;10.766;2023-02-18T07:35:15;96346.19;;;10.90;81.74
13407;BME280;6774;48.208;10.766;2023-02-18T07:37:45;96331.94;;;11.07;81.01
13407;BME280;6774;48.208;10.766;2023-02-18T07:40:15;96333.19;;;11.20;80.61
13407;BME280;6774;48.208;10.766;2023-02-18T07:42:44;96333.75;;;11.07;80.55
13407;BME280;6774;48.208;10.766;2023-02-18T07:45:12;96351.44;;;10.98;80.98
13407;BME280;6774;48.208;10.766;2023-02-18T07:47:40;96325.31;;;11.11;80.65
13407;BME280;6774;48.208;10.766;2023-02-18T07:50:09;96328.19;;;11.33;80.32
13407;BME280;6774;48.208;10.766;2023-02-18T07:52:37;96332.53;;;11.26;80.68
13407;BME280;6774;48.208;10.766;2023-02-18T07:55:07;96330.09;;;11.47;79.66
13407;BME280;6774;48.208;10.766;2023-02-18T07:57:35;96312.41;;;11.17;80.22
13407;BME280;6774;48.208;10.766;2023-02-18T08:00:23;96329.44;;;11.53;79.24
13407;BME280;6774;48.208;10.766;2023-02-18T08:02:51;96329.75;;;11.50;78.74
13407;BME280;6774;48.208;10.766;2023-02-18T08:05:19;96317.25;;;11.44;79.73
13407;BME280;6774;48.208;10.766;2023-02-18T08:07:46;96318.25;;;11.43;79.25
13407;BME280;6774;48.208;10.766;2023-02-18T08:10:16;96322.84;;;11.41;79.57
13407;BME280;6774;48.208;10.766;2023-02-18T08:12:43;96322.75;;;11.65;78.54
13407;BME280;6774;48.208;10.766;2023-02-18T08:15:12;96294.22;;;11.22;79.12
13407;BME280;6774;48.208;10.766;2023-02-18T08:17:39;96322.19;;;11.47;78.38
13407;BME280;6774;48.208;10.766;2023-02-18T08:20:08;96329.06;;;11.56;78.16
13407;BME280;6774;48.208;10.766;2023-02-18T08:22:36;96324.69;;;11.72;78.73
13407;BME280;6774;48.208;10.766;2023-02-18T08:25:04;96319.75;;;11.68;77.67
13407;BME280;6774;48.208;10.766;2023-02-18T08:27:34;96318.22;;;11.74;77.98
13407;BME280;6774;48.208;10.766;2023-02-18T08:30:02;96296.09;;;11.44;78.61
13407;BME280;6774;48.208;10.766;2023-02-18T08:32:29;96292.75;;;11.50;78.88
13407;BME280;6774;48.208;10.766;2023-02-18T08:34:57;96293.09;;;11.47;78.70
13407;BME280;6774;48.208;10.766;2023-02-18T08:37:25;96299.75;;;11.43;79.08
13407;BME280;6774;48.208;10.766;2023-02-18T08:39:53;96301.28;;;11.60;78.50
13407;BME280;6774;48.208;10.766;2023-02-18T08:42:21;96287.13;;;11.53;79.41
13407;BME280;6774;48.208;10.766;2023-02-18T08:44:50;96318.78;;;11.30;80.02
13407;BME280;6774;48.208;10.766;2023-02-18T08:47:17;96292.66;;;11.66;78.53
13407;BME280;6774;48.208;10.766;2023-02-18T08:50:05;96321.03;;;11.81;78.08
13407;BME280;6774;48.208;10.766;2023-02-18T08:52:33;96300.47;;;11.91;77.71
13407;BME280;6774;48.208;10.766;2023-02-18T08:55:01;96275.53;;;12.08;77.50
13407;BME280;6774;48.208;10.766;2023-02-18T08:57:31;96281.53;;;12.02;77.60
13407;BME280;6774;48.208;10.766;2023-02-18T09:00:00;96283.06;;;12.34;77.08
13407;BME280;6774;48.208;10.766;2023-02-18T09:02:28;96288.03;;;12.52;76.13
13407;BME280;6774;48.208;10.766;2023-02-18T09:04:55;96276.47;;;12.53;75.42
13407;BME280;6774;48.208;10.766;2023-02-18T09:07:23;96295.84;;;12.31;76.25
13407;BME280;6774;48.208;10.766;2023-02-18T09:09:51;96288.91;;;12.30;76.98
13407;BME280;6774;48.208;10.766;2023-02-18T09:12:19;96284.38;;;12.01;76.97
13407;BME280;6774;48.208;10.766;2023-02-18T09:14:47;96285.63;;;12.05;76.71
13407;BME280;6774;48.208;10.766;2023-02-18T09:17:16;96295.41;;;12.04;76.51
13407;BME280;6774;48.208;10.766;2023-02-18T09:19:44;96282.34;;;12.26;76.36
13407;BME280;6774;48.208;10.766;2023-02-18T09:22:12;96283.94;;;12.49;75.46
13407;BME280;6774;48.208;10.766;2023-02-18T09:24:41;96273.72;;;12.61;74.71
13407;BME280;6774;48.208;10.766;2023-02-18T09:27:08;96254.72;;;12.58;75.20
13407;BME280;6774;48.208;10.766;2023-02-18T09:29:38;96265.06;;;12.82;73.80
13407;BME280;6774;48.208;10.766;2023-02-18T09:32:07;96275.63;;;12.97;72.87
13407;BME280;6774;48.208;10.766;2023-02-18T09:34:37;96263.81;;;13.44;73.05
13407;BME280;6774;48.208;10.766;2023-02-18T09:37:05;96259.97;;;13.82;71.87
13407;BME280;6774;48.208;10.766;2023-02-18T09:39:33;96263.97;;;13.57;71.30
13407;BME280;6774;48.208;10.766;2023-02-18T09:42:03;96276.31;;;13.86;71.44
13407;BME280;6774;48.208;10.766;2023-02-18T09:44:33;96260.44;;;14.14;70.02
13407;BME280;6774;48.208;10.766;2023-02-18T09:47:03;96256.44;;;14.24;70.67
13407;BME280;6774;48.208;10.766;2023-02-18T09:49:35;96246.16;;;14.43;70.08
13407;BME280;6774;48.208;10.766;2023-02-18T09:52:10;96223.88;;;14.09;70.15
13407;BME280;6774;48.208;10.766;2023-02-18T09:54:39;96243.28;;;14.38;70.06
13407;BME280;6774;48.208;10.766;2023-02-18T09:57:16;96235.69;;;14.56;68.87
13407;BME280;6774;48.208;10.766;2023-02-18T09:59:52;96218.38;;;14.67;68.56
13407;BME280;6774;48.208;10.766;2023-02-18T10:02:23;96231.13;;;14.50;68.82
13407;BME280;6774;48.208;10.766;2023-02-18T10:04:51;96240.13;;;15.25;66.57
13407;BME280;6774;48.208;10.766;2023-02-18T10:07:24;96234.22;;;14.88;66.95
13407;BME280;6774;48.208;10.766;2023-02-18T10:09:55;96222.16;;;14.86;67.49
13407;BME280;6774;48.208;10.766;2023-02-18T10:12:25;96228.75;;;14.62;67.38
13407;BME280;6774;48.208;10.766;2023-02-18T10:14:54;96216.78;;;14.72;67.30
13407;BME280;6774;48.208;10.766;2023-02-18T10:17:24;96235.72;;;14.63;67.10
13407;BME280;6774;48.208;10.766;2023-02-18T10:19:53;96217.50;;;14.94;67.52
13407;BME280;6774;48.208;10.766;2023-02-18T10:22:26;96208.09;;;14.98;66.85
13407;BME280;6774;48.208;10.766;2023-02-18T10:24:56;96210.66;;;15.26;65.71
13407;BME280;6774;48.208;10.766;2023-02-18T10:27:26;96203.47;;;15.14;66.63
13407;BME280;6774;48.208;10.766;2023-02-18T10:29:58;96194.38;;;15.49;65.92
13407;BME280;6774;48.208;10.766;2023-02-18T10:32:32;96199.09;;;15.47;66.38
13407;BME280;6774;48.208;10.766;2023-02-18T10:35:06;96201.69;;;15.27;66.40
13407;BME280;6774;48.208;10.766;2023-02-18T10:37:52;96197.00;;;15.29;66.31
13407;BME280;6774;48.208;10.766;2023-02-18T10:40:25;96194.72;;;15.26;66.12
13407;BME280;6774;48.208;10.766;2023-02-18T10:43:05;96172.28;;;14.88;67.07
13407;BME280;6774;48.208;10.766;2023-02-18T10:45:41;96194.69;;;14.44;68.05
13407;BME280;6774;48.208;10.766;2023-02-18T10:48:25;96188.31;;;13.61;69.71
13407;BME280;6774;48.208;10.766;2023-02-18T10:51:01;96167.53;;;14.14;68.97
13407;BME280;6774;48.208;10.766;2023-02-18T10:53:36;96185.72;;;14.17;68.46
13407;BME280;6774;48.208;10.766;2023-02-18T10:56:06;96144.44;;;14.08;68.87
13407;BME280;6774;48.208;10.766;2023-02-18T10:58:41;96188.63;;;14.22;69.83
13407;BME280;6774;48.208;10.766;2023-02-18T11:01:14;96177.06;;;14.02;69.66
13407;BME280;6774;48.208;10.766;2023-02-18T11:03:45;96167.78;;;13.91;70.49
13407;BME280;6774;48.208;10.766;2023-02-18T11:06:20;96148.63;;;13.68;71.43
13407;BME280;6774;48.208;10.766;2023-02-18T11:08:52;96166.75;;;13.64;70.75
13407;BME280;6774;48.208;10.766;2023-02-18T11:11:23;96170.25;;;13.92;70.66
13407;BME280;6774;48.208;10.766;2023-02-18T11:13:53;96159.41;;;13.66;70.66
13407;BME280;6774;48.208;10.766;2023-02-18T11:16:22;96165.97;;;13.70;70.79
13407;BME280;6774;48.208;10.766;2023-02-18T11:18:51;96152.34;;;13.73;70.37
13407;BME280;6774;48.208;10.766;2023-02-18T11:21:23;96164.72;;;13.66;70.20
13407;BME280;6774;48.208;10.766;2023-02-18T11:23:55;96163.44;;;13.62;70.79
13407;BME280;6774;48.208;10.766;2023-02-18T11:26:27;96141.47;;;13.68;70.99
13407;BME280;6774;48.208;10.766;2023-02-18T11:28:59;96148.56;;;13.89;69.65
13407;BME280;6774;48.208;10.766;2023-02-18T11:31:38;96126.84;;;14.00;71.08
13407;BME280;6774;48.208;10.766;2023-02-18T11:34:14;96145.03;;;14.38;69.66
13407;BME280;6774;48.208;10.766;2023-02-18T11:36:43;96146.09;;;14.78;67.85
13407;BME280;6774;48.208;10.766;2023-02-18T11:39:18;96152.09;;;14.93;67.99
13407;BME280;6774;48.208;10.766;2023-02-18T11:41:53;96125.53;;;15.06;66.59
13407;BME280;6774;48.208;10.766;2023-02-18T11:44:26;96131.50;;;14.61;67.87
13407;BME280;6774;48.208;10.766;2023-02-18T11:46:57;96152.69;;;14.47;68.12
13407;BME280;6774;48.208;10.766;2023-02-18T11:49:26;96144.63;;;14.69;68.22
13407;BME280;6774;48.208;10.766;2023-02-18T11:52:04;96142.13;;;14.61;67.66
13407;BME280;6774;48.208;10.766;2023-02-18T11:54:33;96149.88;;;14.56;67.90
13407;BME280;6774;48.208;10.766;2023-02-18T11:57:04;96162.56;;;14.32;68.05
13407;BME280;6774;48.208;10.766;2023-02-18T11:59:35;96142.81;;;14.41;67.88
13407;BME280;6774;48.208;10.766;2023-02-18T12:02:20;96130.16;;;14.43;67.32
13407;BME280;6774;48.208;10.766;2023-02-18T12:04:58;96115.56;;;13.98;68.50
13407;BME280;6774;48.208;10.766;2023-02-18T12:07:30;96101.84;;;13.88;68.68
13407;BME280;6774;48.208;10.766;2023-02-18T12:10:09;96121.22;;;13.88;69.01
13407;BME280;6774;48.208;10.766;2023-02-18T12:12:43;96120.84;;;13.91;68.49
13407;BME280;6774;48.208;10.766;2023-02-18T12:15:15;96127.34;;;13.40;70.21
13407;BME280;6774;48.208;10.766;2023-02-18T12:17:57;96142.59;;;13.80;70.39
13407;BME280;6774;48.208;10.766;2023-02-18T12:20:46;96120.66;;;13.65;69.89
13407;BME280;6774;48.208;10.766;2023-02-18T12:23:25;96128.22;;;13.96;68.90
13407;BME280;6774;48.208;10.766;2023-02-18T12:26:01;96107.75;;;13.62;69.78
13407;BME280;6774;48.208;10.766;2023-02-18T12:28:48;96108.44;;;13.71;68.86
13407;BME280;6774;48.208;10.766;2023-02-18T12:31:27;96128.13;;;13.83;70.42
13407;BME280;6774;48.208;10.766;2023-02-18T12:34:21;96121.63;;;13.85;69.62
13407;BME280;6774;48.208;10.766;2023-02-18T12:37:00;96120.31;;;13.75;69.30
13407;BME280;6774;48.208;10.766;2023-02-18T12:39:44;96108.34;;;13.85;69.57
13407;BME280;6774;48.208;10.766;2023-02-18T12:42:27;96090.84;;;13.91;69.78
13407;BME280;6774;48.208;10.766;2023-02-18T12:45:17;96111.75;;;13.73;68.36
13407;BME280;6774;48.208;10.766;2023-02-18T12:48:07;96105.50;;;13.59;68.61
13407;BME280;6774;48.208;10.766;2023-02-18T12:50:51;96095.03;;;13.79;69.38
13407;BME280;6774;48.208;10.766;2023-02-18T12:53:33;96102.50;;;13.97;68.85
13407;BME280;6774;48.208;10.766;2023-02-18T12:59:07;96095.56;;;13.95;67.99
13407;BME280;6774;48.208;10.766;2023-02-18T13:01:46;96090.34;;;14.09;68.10
13407;BME280;6774;48.208;10.766;2023-02-18T13:04:24;96080.50;;;14.03;67.34
13407;BME280;6774;48.208;10.766;2023-02-18T13:07:28;96088.38;;;14.24;67.29
13407;BME280;6774;48.208;10.766;2023-02-18T13:10:20;96073.78;;;14.41;67.28
13407;BME280;6774;48.208;10.766;2023-02-18T13:13:00;96082.47;;;14.57;67.38
13407;BME280;6774;48.208;10.766;2023-02-18T13:15:37;96067.41;;;14.77;67.37
13407;BME280;6774;48.208;10.766;2023-02-18T13:18:10;96067.66;;;14.95;67.00
13407;BME280;6774;48.208;10.766;2023-02-18T13:20:41;96058.38;;;14.65;66.88
13407;BME280;6774;48.208;10.766;2023-02-18T13:23:16;96071.72;;;14.43;66.84
13407;BME280;6774;48.208;10.766;2023-02-18T13:25:46;96079.19;;;14.55;66.42
13407;BME280;6774;48.208;10.766;2023-02-18T13:28:20;96059.41;;;14.64;68.05
13407;BME280;6774;48.208;10.766;2023-02-18T13:31:01;96054.25;;;14.56;67.38